Terminal Aerodrome Forecast
Issued by NWS

Home | Current Version | Previous Version | Text Only | Print | Product List | Glossary On
Versions: 1 2 3 4 5 6 7 8 9 10 11 12 13 14 15 16 17 18 19 20 21 22 23 24 25 26 27 28 29 30
000
FTUS44 KOHX 260532
TAFCKV
TAF
KCKV 260532Z 2606/2706 16010KT P6SM VCSH BKN045 OVC070
     FM261000 19008KT P6SM BKN030 OVC040
     FM261300 19006KT P6SM OVC015
     FM261600 21009KT P6SM BKN035
     FM270300 VRB03KT P6SM SCT140=

USA.gov is the U.S. government's official web portal to all federal, state and local government web resources and services.